sensor_id;sensor_type;location;lat;lon;timestamp;temperature;humidity
14798;DHT22;7490;63.708;20.368;2022-12-07T00:01:05;-3.80;85.70
14798;DHT22;7490;63.708;20.368;2022-12-07T00:03:31;-3.90;86.40
14798;DHT22;7490;63.708;20.368;2022-12-07T00:06:00;-3.90;85.60
14798;DHT22;7490;63.708;20.368;2022-12-07T00:08:26;-3.90;85.60
14798;DHT22;7490;63.708;20.368;2022-12-07T00:10:52;-3.90;85.60
14798;DHT22;7490;63.708;20.368;2022-12-07T00:13:17;-3.90;85.60
14798;DHT22;7490;63.708;20.368;2022-12-07T00:15:43;-4.00;85.60
14798;DHT22;7490;63.708;20.368;2022-12-07T00:18:09;-4.00;85.70
14798;DHT22;7490;63.708;20.368;2022-12-07T00:20:35;-4.00;85.80
14798;DHT22;7490;63.708;20.368;2022-12-07T00:23:00;-4.00;85.80
14798;DHT22;7490;63.708;20.368;2022-12-07T00:25:26;-4.10;85.90
14798;DHT22;7490;63.708;20.368;2022-12-07T00:27:53;-4.10;85.80
14798;DHT22;7490;63.708;20.368;2022-12-07T00:30:21;-4.10;85.80
14798;DHT22;7490;63.708;20.368;2022-12-07T00:32:47;-4.10;85.90
14798;DHT22;7490;63.708;20.368;2022-12-07T00:35:13;-4.10;85.90
14798;DHT22;7490;63.708;20.368;2022-12-07T00:37:38;-4.20;85.90
14798;DHT22;7490;63.708;20.368;2022-12-07T00:40:05;-4.10;86.00
14798;DHT22;7490;63.708;20.368;2022-12-07T00:42:31;-4.20;86.00
14798;DHT22;7490;63.708;20.368;2022-12-07T00:44:56;-4.20;86.00
14798;DHT22;7490;63.708;20.368;2022-12-07T00:47:22;-4.20;86.00
14798;DHT22;7490;63.708;20.368;2022-12-07T00:49:47;-4.20;86.00
14798;DHT22;7490;63.708;20.368;2022-12-07T00:52:13;-4.20;86.00
14798;DHT22;7490;63.708;20.368;2022-12-07T00:54:39;-4.20;86.80
14798;DHT22;7490;63.708;20.368;2022-12-07T00:57:05;-4.30;85.90
14798;DHT22;7490;63.708;20.368;2022-12-07T00:59:31;-4.30;85.90
14798;DHT22;7490;63.708;20.368;2022-12-07T01:01:56;-4.30;85.90
14798;DHT22;7490;63.708;20.368;2022-12-07T01:04:22;-4.30;85.90
14798;DHT22;7490;63.708;20.368;2022-12-07T01:06:48;-4.40;85.80
14798;DHT22;7490;63.708;20.368;2022-12-07T01:09:13;-4.40;85.80
14798;DHT22;7490;63.708;20.368;2022-12-07T01:11:39;-4.40;85.80
14798;DHT22;7490;63.708;20.368;2022-12-07T01:14:05;-4.40;85.80
14798;DHT22;7490;63.708;20.368;2022-12-07T01:16:31;-4.40;85.90
14798;DHT22;7490;63.708;20.368;2022-12-07T01:18:59;-4.40;86.00
14798;DHT22;7490;63.708;20.368;2022-12-07T01:21:29;-4.50;86.00
14798;DHT22;7490;63.708;20.368;2022-12-07T01:23:57;-4.50;86.00
14798;DHT22;7490;63.708;20.368;2022-12-07T01:26:24;-4.90;85.70
14798;DHT22;7490;63.708;20.368;2022-12-07T01:28:50;-4.50;86.00
14798;DHT22;7490;63.708;20.368;2022-12-07T01:31:19;-4.50;86.00
14798;DHT22;7490;63.708;20.368;2022-12-07T01:33:48;-4.50;86.00
14798;DHT22;7490;63.708;20.368;2022-12-07T01:38:39;-4.60;86.00
14798;DHT22;7490;63.708;20.368;2022-12-07T01:41:05;-4.50;86.00
14798;DHT22;7490;63.708;20.368;2022-12-07T01:43:33;-4.60;86.00
14798;DHT22;7490;63.708;20.368;2022-12-07T01:45:59;-4.60;86.10
14798;DHT22;7490;63.708;20.368;2022-12-07T01:48:31;-4.60;86.00
14798;DHT22;7490;63.708;20.368;2022-12-07T01:51:02;-4.60;85.90
14798;DHT22;7490;63.708;20.368;2022-12-07T01:53:30;-4.60;86.00
14798;DHT22;7490;63.708;20.368;2022-12-07T01:55:58;-4.60;86.00
14798;DHT22;7490;63.708;20.368;2022-12-07T01:58:24;-4.60;86.00
14798;DHT22;7490;63.708;20.368;2022-12-07T02:00:50;-4.70;85.90
14798;DHT22;7490;63.708;20.368;2022-12-07T02:03:24;-4.70;86.00
14798;DHT22;7490;63.708;20.368;2022-12-07T02:05:53;-4.70;86.10
14798;DHT22;7490;63.708;20.368;2022-12-07T02:08:20;-4.70;86.10
14798;DHT22;7490;63.708;20.368;2022-12-07T02:10:45;-4.70;86.10
14798;DHT22;7490;63.708;20.368;2022-12-07T02:13:18;-4.70;86.10
14798;DHT22;7490;63.708;20.368;2022-12-07T02:16:13;-4.80;86.20
14798;DHT22;7490;63.708;20.368;2022-12-07T02:35:30;-4.80;86.40
14798;DHT22;7490;63.708;20.368;2022-12-07T02:38:30;-4.80;86.60
14798;DHT22;7490;63.708;20.368;2022-12-07T02:43:39;-4.80;86.80
14798;DHT22;7490;63.708;20.368;2022-12-07T02:46:15;-4.80;87.00
14798;DHT22;7490;63.708;20.368;2022-12-07T02:48:43;-4.80;86.90
14798;DHT22;7490;63.708;20.368;2022-12-07T02:51:09;-4.70;87.00
14798;DHT22;7490;63.708;20.368;2022-12-07T02:53:38;-4.80;87.80
14798;DHT22;7490;63.708;20.368;2022-12-07T02:56:17;-4.70;87.00
14798;DHT22;7490;63.708;20.368;2022-12-07T02:58:50;-4.70;86.90
14798;DHT22;7490;63.708;20.368;2022-12-07T03:19:08;-4.90;86.50
14798;DHT22;7490;63.708;20.368;2022-12-07T03:21:39;-4.90;86.40
14798;DHT22;7490;63.708;20.368;2022-12-07T03:24:10;-4.90;86.40
14798;DHT22;7490;63.708;20.368;2022-12-07T03:26:41;-4.90;86.40
14798;DHT22;7490;63.708;20.368;2022-12-07T03:29:13;-4.90;86.50
14798;DHT22;7490;63.708;20.368;2022-12-07T03:31:46;-4.90;86.50
14798;DHT22;7490;63.708;20.368;2022-12-07T03:34:21;-4.90;86.50
14798;DHT22;7490;63.708;20.368;2022-12-07T03:36:55;-5.00;86.40
14798;DHT22;7490;63.708;20.368;2022-12-07T03:41:54;-5.00;86.30
14798;DHT22;7490;63.708;20.368;2022-12-07T03:44:20;-5.00;86.30
14798;DHT22;7490;63.708;20.368;2022-12-07T03:49:32;-5.00;87.10
14798;DHT22;7490;63.708;20.368;2022-12-07T03:55:02;-5.10;87.00
14798;DHT22;7490;63.708;20.368;2022-12-07T03:57:33;-5.10;86.20
14798;DHT22;7490;63.708;20.368;2022-12-07T03:59:59;-5.10;86.30
14798;DHT22;7490;63.708;20.368;2022-12-07T04:02:27;-5.10;86.30
14798;DHT22;7490;63.708;20.368;2022-12-07T04:04:54;-5.10;86.70
14798;DHT22;7490;63.708;20.368;2022-12-07T04:07:20;-5.20;86.30
14798;DHT22;7490;63.708;20.368;2022-12-07T04:09:45;-5.10;86.30
14798;DHT22;7490;63.708;20.368;2022-12-07T04:12:11;-5.20;86.30
14798;DHT22;7490;63.708;20.368;2022-12-07T04:14:37;-5.20;86.50
14798;DHT22;7490;63.708;20.368;2022-12-07T04:17:02;-5.20;86.50
14798;DHT22;7490;63.708;20.368;2022-12-07T04:19:32;-5.20;86.60
14798;DHT22;7490;63.708;20.368;2022-12-07T04:21:59;-5.20;86.50
14798;DHT22;7490;63.708;20.368;2022-12-07T04:24:25;-5.20;86.40
14798;DHT22;7490;63.708;20.368;2022-12-07T04:26:51;-5.20;86.40
14798;DHT22;7490;63.708;20.368;2022-12-07T04:29:18;-5.20;86.40
14798;DHT22;7490;63.708;20.368;2022-12-07T04:31:44;-5.20;86.50
14798;DHT22;7490;63.708;20.368;2022-12-07T04:34:10;-5.20;86.40
14798;DHT22;7490;63.708;20.368;2022-12-07T04:36:36;-5.20;86.40
14798;DHT22;7490;63.708;20.368;2022-12-07T04:39:03;-5.20;86.30
14798;DHT22;7490;63.708;20.368;2022-12-07T04:41:29;-5.20;86.40
14798;DHT22;7490;63.708;20.368;2022-12-07T04:44:01;-5.20;86.40
14798;DHT22;7490;63.708;20.368;2022-12-07T04:46:29;-5.30;86.50
14798;DHT22;7490;63.708;20.368;2022-12-07T04:48:56;-5.30;86.60
14798;DHT22;7490;63.708;20.368;2022-12-07T04:51:24;-5.00;86.70
14798;DHT22;7490;63.708;20.368;2022-12-07T04:53:50;-5.30;86.50
14798;DHT22;7490;63.708;20.368;2022-12-07T04:56:17;-5.30;86.50
14798;DHT22;7490;63.708;20.368;2022-12-07T04:58:44;-5.30;86.60
14798;DHT22;7490;63.708;20.368;2022-12-07T05:01:10;-5.30;86.70
14798;DHT22;7490;63.708;20.368;2022-12-07T05:03:36;-5.30;86.50
14798;DHT22;7490;63.708;20.368;2022-12-07T05:06:03;-5.40;86.40
14798;DHT22;7490;63.708;20.368;2022-12-07T05:08:29;-5.40;86.40
14798;DHT22;7490;63.708;20.368;2022-12-07T05:10:54;-5.40;86.60
14798;DHT22;7490;63.708;20.368;2022-12-07T05:13:20;-5.40;86.70
14798;DHT22;7490;63.708;20.368;2022-12-07T05:15:47;-5.40;86.70
14798;DHT22;7490;63.708;20.368;2022-12-07T05:18:13;-5.40;86.70
14798;DHT22;7490;63.708;20.368;2022-12-07T05:20:39;-5.40;86.90
14798;DHT22;7490;63.708;20.368;2022-12-07T05:23:05;-5.40;86.90
14798;DHT22;7490;63.708;20.368;2022-12-07T05:25:31;-5.40;86.90
14798;DHT22;7490;63.708;20.368;2022-12-07T05:27:56;-5.40;87.50
14798;DHT22;7490;63.708;20.368;2022-12-07T05:30:25;-5.30;87.00
14798;DHT22;7490;63.708;20.368;2022-12-07T05:32:51;-5.40;87.00
14798;DHT22;7490;63.708;20.368;2022-12-07T05:35:18;-5.40;87.00
14798;DHT22;7490;63.708;20.368;2022-12-07T05:37:44;-5.30;87.00
14798;DHT22;7490;63.708;20.368;2022-12-07T05:40:10;-5.30;86.90
14798;DHT22;7490;63.708;20.368;2022-12-07T05:42:36;-5.30;86.90
14798;DHT22;7490;63.708;20.368;2022-12-07T05:45:03;-5.40;86.90
14798;DHT22;7490;63.708;20.368;2022-12-07T05:47:29;-5.40;86.90
14798;DHT22;7490;63.708;20.368;2022-12-07T05:49:54;-5.30;87.00
14798;DHT22;7490;63.708;20.368;2022-12-07T05:52:20;-5.40;87.00
14798;DHT22;7490;63.708;20.368;2022-12-07T05:54:46;-5.30;87.10
14798;DHT22;7490;63.708;20.368;2022-12-07T05:57:12;-5.40;87.10
14798;DHT22;7490;63.708;20.368;2022-12-07T05:59:37;-5.30;87.10
14798;DHT22;7490;63.708;20.368;2022-12-07T06:02:06;-5.30;87.10
14798;DHT22;7490;63.708;20.368;2022-12-07T06:04:35;-5.30;87.20
14798;DHT22;7490;63.708;20.368;2022-12-07T06:07:00;-5.30;87.20
14798;DHT22;7490;63.708;20.368;2022-12-07T06:09:27;-5.30;87.20
14798;DHT22;7490;63.708;20.368;2022-12-07T06:11:53;-5.30;87.10
14798;DHT22;7490;63.708;20.368;2022-12-07T06:14:38;-5.30;87.00
14798;DHT22;7490;63.708;20.368;2022-12-07T06:17:04;-5.30;86.90
14798;DHT22;7490;63.708;20.368;2022-12-07T06:19:29;-5.30;86.90
14798;DHT22;7490;63.708;20.368;2022-12-07T06:21:55;-5.40;86.90
14798;DHT22;7490;63.708;20.368;2022-12-07T06:24:21;-5.40;87.00
14798;DHT22;7490;63.708;20.368;2022-12-07T06:26:48;-5.30;86.90
14798;DHT22;7490;63.708;20.368;2022-12-07T06:29:14;-5.40;86.80
14798;DHT22;7490;63.708;20.368;2022-12-07T06:31:40;-5.40;86.80
14798;DHT22;7490;63.708;20.368;2022-12-07T06:34:10;-5.40;86.60
14798;DHT22;7490;63.708;20.368;2022-12-07T06:36:36;-5.50;86.50
14798;DHT22;7490;63.708;20.368;2022-12-07T06:39:03;-5.40;86.50
14798;DHT22;7490;63.708;20.368;2022-12-07T06:41:28;-5.50;86.50
14798;DHT22;7490;63.708;20.368;2022-12-07T06:43:54;-5.50;86.70
14798;DHT22;7490;63.708;20.368;2022-12-07T06:46:20;-5.60;86.70
14798;DHT22;7490;63.708;20.368;2022-12-07T06:48:46;-5.60;86.60
14798;DHT22;7490;63.708;20.368;2022-12-07T06:51:11;-5.60;86.60
14798;DHT22;7490;63.708;20.368;2022-12-07T06:53:37;-5.60;86.60
14798;DHT22;7490;63.708;20.368;2022-12-07T06:56:04;-5.70;86.40
14798;DHT22;7490;63.708;20.368;2022-12-07T06:58:30;-5.70;86.40
14798;DHT22;7490;63.708;20.368;2022-12-07T07:00:56;-5.70;86.30
14798;DHT22;7490;63.708;20.368;2022-12-07T07:03:22;-5.70;86.20
14798;DHT22;7490;63.708;20.368;2022-12-07T07:05:48;-5.80;86.20
14798;DHT22;7490;63.708;20.368;2022-12-07T07:08:13;-5.80;86.30
14798;DHT22;7490;63.708;20.368;2022-12-07T07:10:40;-5.80;86.30
14798;DHT22;7490;63.708;20.368;2022-12-07T07:13:05;-5.90;86.10
14798;DHT22;7490;63.708;20.368;2022-12-07T07:15:32;-5.90;86.10
14798;DHT22;7490;63.708;20.368;2022-12-07T07:17:58;-5.90;86.00
14798;DHT22;7490;63.708;20.368;2022-12-07T07:20:23;-6.00;86.10
14798;DHT22;7490;63.708;20.368;2022-12-07T07:22:49;-6.00;86.20
14798;DHT22;7490;63.708;20.368;2022-12-07T07:25:15;-6.00;86.30
14798;DHT22;7490;63.708;20.368;2022-12-07T07:27:41;-6.00;86.10
14798;DHT22;7490;63.708;20.368;2022-12-07T07:30:08;-6.10;86.00
14798;DHT22;7490;63.708;20.368;2022-12-07T07:32:34;-6.10;86.00
14798;DHT22;7490;63.708;20.368;2022-12-07T07:34:59;-6.10;85.90
14798;DHT22;7490;63.708;20.368;2022-12-07T07:37:26;-6.10;86.00
14798;DHT22;7490;63.708;20.368;2022-12-07T07:39:51;-6.10;86.00
14798;DHT22;7490;63.708;20.368;2022-12-07T07:42:17;-6.20;86.00
14798;DHT22;7490;63.708;20.368;2022-12-07T07:44:43;-6.20;86.20
14798;DHT22;7490;63.708;20.368;2022-12-07T07:47:08;-6.20;86.20
14798;DHT22;7490;63.708;20.368;2022-12-07T07:49:34;-6.30;86.10
14798;DHT22;7490;63.708;20.368;2022-12-07T07:52:00;-6.30;85.90
14798;DHT22;7490;63.708;20.368;2022-12-07T07:54:25;-6.30;85.90
14798;DHT22;7490;63.708;20.368;2022-12-07T07:56:52;-6.30;85.90
14798;DHT22;7490;63.708;20.368;2022-12-07T07:59:18;-6.30;85.80
14798;DHT22;7490;63.708;20.368;2022-12-07T08:01:43;-6.40;85.80
14798;DHT22;7490;63.708;20.368;2022-12-07T08:04:09;-6.30;85.90
14798;DHT22;7490;63.708;20.368;2022-12-07T08:06:35;-6.40;85.90
14798;DHT22;7490;63.708;20.368;2022-12-07T08:09:00;-6.40;86.00
14798;DHT22;7490;63.708;20.368;2022-12-07T08:11:26;-6.40;86.00
14798;DHT22;7490;63.708;20.368;2022-12-07T08:13:52;-6.40;86.00
14798;DHT22;7490;63.708;20.368;2022-12-07T08:16:17;-6.40;86.00
14798;DHT22;7490;63.708;20.368;2022-12-07T08:18:43;-6.40;86.10
14798;DHT22;7490;63.708;20.368;2022-12-07T08:21:13;-6.40;86.10
14798;DHT22;7490;63.708;20.368;2022-12-07T08:23:40;-6.40;86.30
14798;DHT22;7490;63.708;20.368;2022-12-07T08:26:11;-6.30;86.50
14798;DHT22;7490;63.708;20.368;2022-12-07T08:28:37;-6.30;86.50
14798;DHT22;7490;63.708;20.368;2022-12-07T08:31:06;-6.30;86.50
14798;DHT22;7490;63.708;20.368;2022-12-07T08:33:32;-6.30;86.50
14798;DHT22;7490;63.708;20.368;2022-12-07T08:36:03;-6.20;86.60
14798;DHT22;7490;63.708;20.368;2022-12-07T08:38:29;-6.20;86.70
14798;DHT22;7490;63.708;20.368;2022-12-07T08:40:55;-6.20;86.60
14798;DHT22;7490;63.708;20.368;2022-12-07T08:43:22;-6.10;86.70
14798;DHT22;7490;63.708;20.368;2022-12-07T08:46:01;-6.10;86.70
14798;DHT22;7490;63.708;20.368;2022-12-07T08:48:29;-6.10;86.70
14798;DHT22;7490;63.708;20.368;2022-12-07T08:50:56;-6.10;86.80
14798;DHT22;7490;63.708;20.368;2022-12-07T08:53:22;-6.00;86.70
14798;DHT22;7490;63.708;20.368;2022-12-07T08:55:48;-6.10;86.70
14798;DHT22;7490;63.708;20.368;2022-12-07T08:58:14;-6.00;86.70
14798;DHT22;7490;63.708;20.368;2022-12-07T09:00:40;-6.00;86.70
14798;DHT22;7490;63.708;20.368;2022-12-07T09:03:06;-6.00;86.70
14798;DHT22;7490;63.708;20.368;2022-12-07T09:05:33;-6.00;86.70
14798;DHT22;7490;63.708;20.368;2022-12-07T09:08:00;-5.90;86.70
14798;DHT22;7490;63.708;20.368;2022-12-07T09:10:27;-5.90;86.70
14798;DHT22;7490;63.708;20.368;2022-12-07T09:12:52;-5.90;86.80
14798;DHT22;7490;63.708;20.368;2022-12-07T09:15:18;-5.90;86.70
14798;DHT22;7490;63.708;20.368;2022-12-07T09:17:43;-5.80;86.70
14798;DHT22;7490;63.708;20.368;2022-12-07T09:20:09;-5.80;86.70
14798;DHT22;7490;63.708;20.368;2022-12-07T09:22:35;-5.80;86.70
14798;DHT22;7490;63.708;20.368;2022-12-07T09:25:01;-5.80;86.70
14798;DHT22;7490;63.708;20.368;2022-12-07T09:27:27;-5.70;87.60
14798;DHT22;7490;63.708;20.368;2022-12-07T09:29:53;-5.70;87.60
14798;DHT22;7490;63.708;20.368;2022-12-07T09:32:18;-5.70;86.70
14798;DHT22;7490;63.708;20.368;2022-12-07T09:34:44;-5.70;86.60
14798;DHT22;7490;63.708;20.368;2022-12-07T09:37:10;-5.70;86.60
14798;DHT22;7490;63.708;20.368;2022-12-07T09:39:38;-5.60;86.90
14798;DHT22;7490;63.708;20.368;2022-12-07T09:42:05;-5.50;87.50
14798;DHT22;7490;63.708;20.368;2022-12-07T09:44:32;-5.40;87.50
14798;DHT22;7490;63.708;20.368;2022-12-07T09:46:58;-5.30;87.50
14798;DHT22;7490;63.708;20.368;2022-12-07T09:49:26;-5.20;87.30
14798;DHT22;7490;63.708;20.368;2022-12-07T09:54:47;-4.90;87.20
14798;DHT22;7490;63.708;20.368;2022-12-07T09:57:13;-4.80;86.70
14798;DHT22;7490;63.708;20.368;2022-12-07T09:59:39;-4.80;86.40
14798;DHT22;7490;63.708;20.368;2022-12-07T10:04:51;-4.80;86.50
14798;DHT22;7490;63.708;20.368;2022-12-07T10:07:16;-4.80;86.70
14798;DHT22;7490;63.708;20.368;2022-12-07T10:09:42;-4.80;86.90
14798;DHT22;7490;63.708;20.368;2022-12-07T10:12:10;-4.60;87.90
14798;DHT22;7490;63.708;20.368;2022-12-07T10:14:40;-4.40;88.10
14798;DHT22;7490;63.708;20.368;2022-12-07T10:17:33;-3.90;88.50
14798;DHT22;7490;63.708;20.368;2022-12-07T10:20:13;-3.40;88.10
14798;DHT22;7490;63.708;20.368;2022-12-07T10:23:00;-2.70;86.80
14798;DHT22;7490;63.708;20.368;2022-12-07T10:25:32;-2.80;85.40
14798;DHT22;7490;63.708;20.368;2022-12-07T10:28:09;-2.80;84.80
14798;DHT22;7490;63.708;20.368;2022-12-07T10:35:56;-3.30;84.30
14798;DHT22;7490;63.708;20.368;2022-12-07T10:38:26;-3.40;84.60
14798;DHT22;7490;63.708;20.368;2022-12-07T10:41:06;-3.50;84.70
14798;DHT22;7490;63.708;20.368;2022-12-07T10:43:32;-3.60;85.00
14798;DHT22;7490;63.708;20.368;2022-12-07T10:53:57;-2.90;84.70
14798;DHT22;7490;63.708;20.368;2022-12-07T11:11:11;-3.80;85.30
14798;DHT22;7490;63.708;20.368;2022-12-07T11:14:00;-3.90;85.60
14798;DHT22;7490;63.708;20.368;2022-12-07T11:22:09;-4.10;86.30
14798;DHT22;7490;63.708;20.368;2022-12-07T11:27:37;-4.10;87.30
14798;DHT22;7490;63.708;20.368;2022-12-07T11:30:13;-4.10;87.30
14798;DHT22;7490;63.708;20.368;2022-12-07T11:32:50;-4.10;87.10
14798;DHT22;7490;63.708;20.368;2022-12-07T11:37:51;-4.20;86.70
14798;DHT22;7490;63.708;20.368;2022-12-07T11:45:37;-4.30;86.50
14798;DHT22;7490;63.708;20.368;2022-12-07T11:48:20;-4.40;86.40
14798;DHT22;7490;63.708;20.368;2022-12-07T11:50:59;-4.40;86.40
14798;DHT22;7490;63.708;20.368;2022-12-07T11:53:38;-4.40;86.40
14798;DHT22;7490;63.708;20.368;2022-12-07T12:06:12;-4.60;86.30
14798;DHT22;7490;63.708;20.368;2022-12-07T12:15:13;-4.80;86.10
14798;DHT22;7490;63.708;20.368;2022-12-07T12:22:43;-5.00;85.80
14798;DHT22;7490;63.708;20.368;2022-12-07T12:25:26;-5.00;85.90
14798;DHT22;7490;63.708;20.368;2022-12-07T12:27:54;-5.00;85.90
14798;DHT22;7490;63.708;20.368;2022-12-07T12:30:40;-5.10;85.90
14798;DHT22;7490;63.708;20.368;2022-12-07T12:33:23;-5.10;85.90
14798;DHT22;7490;63.708;20.368;2022-12-07T12:47:04;-5.40;86.00
14798;DHT22;7490;63.708;20.368;2022-12-07T12:49:34;-5.40;86.10
14798;DHT22;7490;63.708;20.368;2022-12-07T12:57:34;-5.30;86.70
14798;DHT22;7490;63.708;20.368;2022-12-07T13:00:19;-5.50;85.70
14798;DHT22;7490;63.708;20.368;2022-12-07T13:02:55;-5.60;85.60
14798;DHT22;7490;63.708;20.368;2022-12-07T13:05:23;-5.70;85.50
14798;DHT22;7490;63.708;20.368;2022-12-07T13:07:55;-5.70;85.50
14798;DHT22;7490;63.708;20.368;2022-12-07T13:15:44;-5.80;85.60
14798;DHT22;7490;63.708;20.368;2022-12-07T13:28:49;-6.00;85.70
14798;DHT22;7490;63.708;20.368;2022-12-07T13:33:47;-6.10;85.60
14798;DHT22;7490;63.708;20.368;2022-12-07T13:36:39;-6.10;85.50
14798;DHT22;7490;63.708;20.368;2022-12-07T13:39:33;-6.20;85.40
14798;DHT22;7490;63.708;20.368;2022-12-07T13:42:11;-6.20;85.50
14798;DHT22;7490;63.708;20.368;2022-12-07T13:44:40;-6.20;85.60
14798;DHT22;7490;63.708;20.368;2022-12-07T13:47:16;-6.30;85.50
14798;DHT22;7490;63.708;20.368;2022-12-07T13:49:51;-6.30;85.50
14798;DHT22;7490;63.708;20.368;2022-12-07T13:57:32;-6.40;85.40
14798;DHT22;7490;63.708;20.368;2022-12-07T14:00:13;-6.50;85.40
14798;DHT22;7490;63.708;20.368;2022-12-07T14:05:28;-6.50;85.50
14798;DHT22;7490;63.708;20.368;2022-12-07T14:08:02;-6.60;85.40
14798;DHT22;7490;63.708;20.368;2022-12-07T14:10:33;-6.60;85.40
14798;DHT22;7490;63.708;20.368;2022-12-07T14:13:01;-6.60;85.30
14798;DHT22;7490;63.708;20.368;2022-12-07T14:15:32;-6.60;85.40
14798;DHT22;7490;63.708;20.368;2022-12-07T14:18:00;-6.70;85.30
14798;DHT22;7490;63.708;20.368;2022-12-07T14:20:41;-6.70;85.40
14798;DHT22;7490;63.708;20.368;2022-12-07T14:23:24;-6.70;85.30
14798;DHT22;7490;63.708;20.368;2022-12-07T14:25:52;-6.70;85.30
14798;DHT22;7490;63.708;20.368;2022-12-07T14:30:51;-6.80;85.30
14798;DHT22;7490;63.708;20.368;2022-12-07T14:33:17;-6.60;85.40
14798;DHT22;7490;63.708;20.368;2022-12-07T14:35:43;-6.90;85.30
14798;DHT22;7490;63.708;20.368;2022-12-07T14:38:09;-6.80;85.40
14798;DHT22;7490;63.708;20.368;2022-12-07T14:40:35;-6.80;85.40
14798;DHT22;7490;63.708;20.368;2022-12-07T14:43:03;-6.90;85.50
14798;DHT22;7490;63.708;20.368;2022-12-07T14:45:29;-6.90;85.60
14798;DHT22;7490;63.708;20.368;2022-12-07T14:47:56;-6.90;85.50
14798;DHT22;7490;63.708;20.368;2022-12-07T14:50:22;-7.00;85.50
14798;DHT22;7490;63.708;20.368;2022-12-07T14:52:54;-6.90;85.50
14798;DHT22;7490;63.708;20.368;2022-12-07T14:55:24;-7.00;85.40
14798;DHT22;7490;63.708;20.368;2022-12-07T14:57:51;-7.00;85.40
14798;DHT22;7490;63.708;20.368;2022-12-07T15:00:17;-7.00;85.30
14798;DHT22;7490;63.708;20.368;2022-12-07T15:02:44;-7.00;85.30
14798;DHT22;7490;63.708;20.368;2022-12-07T15:05:10;-7.10;85.20
14798;DHT22;7490;63.708;20.368;2022-12-07T15:07:36;-7.10;85.30
14798;DHT22;7490;63.708;20.368;2022-12-07T15:10:03;-7.10;85.30
14798;DHT22;7490;63.708;20.368;2022-12-07T15:12:29;-7.10;85.40
14798;DHT22;7490;63.708;20.368;2022-12-07T15:14:54;-7.20;85.40
14798;DHT22;7490;63.708;20.368;2022-12-07T15:17:20;-7.20;85.40
14798;DHT22;7490;63.708;20.368;2022-12-07T15:19:46;-7.20;85.50
14798;DHT22;7490;63.708;20.368;2022-12-07T15:22:11;-7.20;85.90
14798;DHT22;7490;63.708;20.368;2022-12-07T15:24:37;-7.20;85.60
14798;DHT22;7490;63.708;20.368;2022-12-07T15:27:03;-7.20;85.60
14798;DHT22;7490;63.708;20.368;2022-12-07T15:29:29;-7.20;85.50
14798;DHT22;7490;63.708;20.368;2022-12-07T15:31:55;-7.20;85.40
14798;DHT22;7490;63.708;20.368;2022-12-07T15:34:22;-7.20;85.50
14798;DHT22;7490;63.708;20.368;2022-12-07T15:36:48;-7.30;85.50
14798;DHT22;7490;63.708;20.368;2022-12-07T15:39:14;-7.30;85.40
14798;DHT22;7490;63.708;20.368;2022-12-07T15:41:39;-7.30;85.50
14798;DHT22;7490;63.708;20.368;2022-12-07T15:44:05;-7.30;85.50
14798;DHT22;7490;63.708;20.368;2022-12-07T15:46:49;-7.30;85.60
14798;DHT22;7490;63.708;20.368;2022-12-07T15:49:17;-7.40;85.60
14798;DHT22;7490;63.708;20.368;2022-12-07T15:51:44;-7.40;85.60
14798;DHT22;7490;63.708;20.368;2022-12-07T15:54:18;-7.40;85.50
14798;DHT22;7490;63.708;20.368;2022-12-07T15:56:43;-7.40;85.30
14798;DHT22;7490;63.708;20.368;2022-12-07T15:59:09;-7.40;85.50
14798;DHT22;7490;63.708;20.368;2022-12-07T16:01:35;-7.40;85.70
14798;DHT22;7490;63.708;20.368;2022-12-07T16:04:00;-7.40;85.90
14798;DHT22;7490;63.708;20.368;2022-12-07T16:06:26;-7.40;86.10
14798;DHT22;7490;63.708;20.368;2022-12-07T16:08:52;-7.40;86.00
14798;DHT22;7490;63.708;20.368;2022-12-07T16:11:18;-7.40;85.80
14798;DHT22;7490;63.708;20.368;2022-12-07T16:13:44;-7.40;85.50
14798;DHT22;7490;63.708;20.368;2022-12-07T16:16:15;-7.40;85.60
14798;DHT22;7490;63.708;20.368;2022-12-07T16:18:42;-7.50;85.50
14798;DHT22;7490;63.708;20.368;2022-12-07T16:21:08;-7.50;85.30
14798;DHT22;7490;63.708;20.368;2022-12-07T16:23:34;-7.50;86.00
14798;DHT22;7490;63.708;20.368;2022-12-07T16:26:05;-7.50;85.20
14798;DHT22;7490;63.708;20.368;2022-12-07T16:28:31;-7.50;85.30
14798;DHT22;7490;63.708;20.368;2022-12-07T16:31:04;-7.50;85.40
14798;DHT22;7490;63.708;20.368;2022-12-07T16:33:33;-7.50;85.50
14798;DHT22;7490;63.708;20.368;2022-12-07T16:35:59;-7.50;85.70
14798;DHT22;7490;63.708;20.368;2022-12-07T16:38:25;-7.50;85.90
14798;DHT22;7490;63.708;20.368;2022-12-07T16:40:51;-7.50;86.00
14798;DHT22;7490;63.708;20.368;2022-12-07T16:43:17;-7.50;86.30
14798;DHT22;7490;63.708;20.368;2022-12-07T16:45:42;-7.40;86.40
14798;DHT22;7490;63.708;20.368;2022-12-07T16:48:08;-7.40;87.30
14798;DHT22;7490;63.708;20.368;2022-12-07T16:50:33;-7.40;86.60
14798;DHT22;7490;63.708;20.368;2022-12-07T16:52:59;-7.30;86.40
14798;DHT22;7490;63.708;20.368;2022-12-07T16:55:25;-7.30;86.30
14798;DHT22;7490;63.708;20.368;2022-12-07T16:57:50;-7.30;86.10
14798;DHT22;7490;63.708;20.368;2022-12-07T17:00:16;-7.30;86.10
14798;DHT22;7490;63.708;20.368;2022-12-07T17:02:42;-7.30;86.00
14798;DHT22;7490;63.708;20.368;2022-12-07T17:05:08;-7.30;86.20
14798;DHT22;7490;63.708;20.368;2022-12-07T17:07:33;-7.30;86.30
14798;DHT22;7490;63.708;20.368;2022-12-07T17:09:59;-7.30;86.30
14798;DHT22;7490;63.708;20.368;2022-12-07T17:12:25;-7.30;86.20
14798;DHT22;7490;63.708;20.368;2022-12-07T17:14:51;-7.30;86.20
14798;DHT22;7490;63.708;20.368;2022-12-07T17:17:35;-7.30;86.10
14798;DHT22;7490;63.708;20.368;2022-12-07T17:20:01;-7.30;85.90
14798;DHT22;7490;63.708;20.368;2022-12-07T17:22:26;-7.30;85.90
14798;DHT22;7490;63.708;20.368;2022-12-07T17:24:52;-7.30;85.90
14798;DHT22;7490;63.708;20.368;2022-12-07T17:27:18;-7.40;86.60
14798;DHT22;7490;63.708;20.368;2022-12-07T17:29:43;-7.40;85.90
14798;DHT22;7490;63.708;20.368;2022-12-07T17:32:09;-7.40;85.90
14798;DHT22;7490;63.708;20.368;2022-12-07T17:34:35;-7.40;86.00
14798;DHT22;7490;63.708;20.368;2022-12-07T17:37:02;-7.40;86.10
14798;DHT22;7490;63.708;20.368;2022-12-07T17:39:27;-7.40;86.00
14798;DHT22;7490;63.708;20.368;2022-12-07T17:41:54;-7.40;85.80
14798;DHT22;7490;63.708;20.368;2022-12-07T17:44:38;-7.40;85.70
14798;DHT22;7490;63.708;20.368;2022-12-07T17:47:03;-7.40;85.80
14798;DHT22;7490;63.708;20.368;2022-12-07T17:49:30;-7.50;86.50
14798;DHT22;7490;63.708;20.368;2022-12-07T17:51:56;-7.40;85.80
14798;DHT22;7490;63.708;20.368;2022-12-07T17:54:40;-7.50;85.80
14798;DHT22;7490;63.708;20.368;2022-12-07T17:57:06;-7.50;86.10
14798;DHT22;7490;63.708;20.368;2022-12-07T17:59:32;-7.50;86.20
14798;DHT22;7490;63.708;20.368;2022-12-07T18:01:58;-7.50;86.20
14798;DHT22;7490;63.708;20.368;2022-12-07T18:04:23;-7.50;86.10
14798;DHT22;7490;63.708;20.368;2022-12-07T18:06:49;-7.50;86.00
14798;DHT22;7490;63.708;20.368;2022-12-07T18:09:15;-7.50;85.80
14798;DHT22;7490;63.708;20.368;2022-12-07T18:11:40;-7.50;85.70
14798;DHT22;7490;63.708;20.368;2022-12-07T18:14:06;-7.50;85.80
14798;DHT22;7490;63.708;20.368;2022-12-07T18:16:32;-7.50;85.70
14798;DHT22;7490;63.708;20.368;2022-12-07T18:19:04;-7.50;85.90
14798;DHT22;7490;63.708;20.368;2022-12-07T18:21:31;-7.50;85.90